createdAt,value
2023-02-16T00:03:27.261Z,88.41
2023-02-16T00:08:28.703Z,87.70
2023-02-16T00:13:47.436Z,88.22
2023-02-16T00:18:49.097Z,88.19
2023-02-16T00:23:51.112Z,88.21
2023-02-16T00:28:55.023Z,88.46
2023-02-16T00:33:56.465Z,88.30
2023-02-16T00:38:57.892Z,88.27
2023-02-16T00:43:59.426Z,87.86
2023-02-16T00:49:00.858Z,88.07
2023-02-16T00:54:02.347Z,87.73
2023-02-16T00:59:07.409Z,87.86
2023-02-16T01:04:20.120Z,87.75
2023-02-16T01:09:40.091Z,87.74
2023-02-16T01:14:41.578Z,87.55
2023-02-16T01:19:43.108Z,87.35
2023-02-16T01:24:44.604Z,87.01
2023-02-16T01:29:46.105Z,87.81
2023-02-16T01:34:47.587Z,87.90
2023-02-16T01:39:49.436Z,88.02
2023-02-16T01:44:59.702Z,87.11
2023-02-16T01:50:14.911Z,87.21
2023-02-16T01:55:28.417Z,86.78
2023-02-16T02:00:52.064Z,86.82
2023-02-16T02:05:53.500Z,87.70
2023-02-16T02:11:20.250Z,87.37
2023-02-16T02:16:28.913Z,87.71
2023-02-16T02:22:28.195Z,87.94
2023-02-16T02:27:37.614Z,87.54
2023-02-16T02:32:45.699Z,87.19
2023-02-16T02:38:06.316Z,87.75
2023-02-16T02:43:10.874Z,88.32
2023-02-16T02:48:13.882Z,87.53
2023-02-16T02:53:16.306Z,87.32
2023-02-16T02:58:41.575Z,87.90
2023-02-16T03:03:47.788Z,87.20
2023-02-16T03:08:55.792Z,88.18
2023-02-16T03:14:05.773Z,87.18
2023-02-16T03:19:28.216Z,87.12
2023-02-16T03:24:51.777Z,87.79
2023-02-16T03:29:55.810Z,87.72
2023-02-16T03:34:57.452Z,87.97
2023-02-16T03:40:17.831Z,87.74
2023-02-16T03:45:23.112Z,87.74
2023-02-16T03:50:26.982Z,86.60
2023-02-16T03:55:28.399Z,86.87
2023-02-16T04:00:29.922Z,87.67
2023-02-16T04:05:32.490Z,88.20
2023-02-16T04:10:34.546Z,87.56
2023-02-16T04:15:36.010Z,88.02
2023-02-16T04:20:37.794Z,88.02
2023-02-16T04:25:39.207Z,88.36
2023-02-16T04:30:40.705Z,88.41
2023-02-16T04:35:42.175Z,88.51
2023-02-16T04:40:43.610Z,88.19
2023-02-16T04:45:45.025Z,88.09
2023-02-16T04:50:46.495Z,88.57
2023-02-16T04:55:49.512Z,88.15
2023-02-16T05:00:50.947Z,87.89
2023-02-16T05:05:52.355Z,88.25
2023-02-16T05:11:12.241Z,88.44
2023-02-16T05:16:13.669Z,88.11
2023-02-16T05:21:33.205Z,88.21
2023-02-16T05:26:36.776Z,88.66
2023-02-16T05:31:38.380Z,89.02
2023-02-16T05:36:39.932Z,88.75
2023-02-16T05:41:41.350Z,89.08
2023-02-16T05:46:43.182Z,89.04
2023-02-16T05:51:44.624Z,88.81
2023-02-16T05:56:50.743Z,88.82
2023-02-16T06:01:52.735Z,88.81
2023-02-16T06:06:54.594Z,88.87
2023-02-16T06:11:55.990Z,88.60
2023-02-16T06:16:58.663Z,88.55
2023-02-16T06:22:00.104Z,88.85
2023-02-16T06:27:01.527Z,88.77
2023-02-16T06:32:03.458Z,88.56
2023-02-16T06:37:04.993Z,88.43
2023-02-16T06:42:06.394Z,88.25
2023-02-16T06:47:07.790Z,88.36
2023-02-16T06:52:09.396Z,88.52
2023-02-16T06:57:11.006Z,88.62
2023-02-16T07:02:12.603Z,88.52
2023-02-16T07:07:14.160Z,89.10
2023-02-16T07:12:15.611Z,88.88
2023-02-16T07:17:17.378Z,88.87
2023-02-16T07:22:18.946Z,89.04
2023-02-16T07:27:20.343Z,88.88
2023-02-16T07:32:21.933Z,89.42
2023-02-16T07:37:23.506Z,89.48
2023-02-16T07:42:24.977Z,89.50
2023-02-16T07:47:26.890Z,89.79
2023-02-16T07:52:30.985Z,90.12
2023-02-16T07:57:32.517Z,89.90
2023-02-16T08:02:42.544Z,90.54
2023-02-16T08:07:46.597Z,90.37
2023-02-16T08:12:49.701Z,90.49
2023-02-16T08:17:51.254Z,90.75
2023-02-16T08:22:54.440Z,90.87
2023-02-16T08:27:55.878Z,91.19
2023-02-16T08:33:00.938Z,90.72
2023-02-16T08:38:02.402Z,91.07
2023-02-16T08:43:03.904Z,90.65
2023-02-16T08:48:05.452Z,91.13
2023-02-16T08:53:06.966Z,90.93
2023-02-16T08:58:08.384Z,91.51
2023-02-16T09:03:09.778Z,91.33
2023-02-16T09:08:11.359Z,91.31
2023-02-16T09:13:16.262Z,90.42
2023-02-16T09:18:18.131Z,89.84
2023-02-16T09:23:20.452Z,89.96
2023-02-16T09:28:21.878Z,89.59
2023-02-16T09:33:23.331Z,89.11
2023-02-16T09:38:25.437Z,87.93
2023-02-16T09:43:47.730Z,86.94
2023-02-16T09:48:50.906Z,86.95
2023-02-16T09:54:02.035Z,85.96
2023-02-16T09:59:18.800Z,85.86
2023-02-16T10:04:51.374Z,86.94
2023-02-16T10:09:55.152Z,85.38
2023-02-16T10:15:02.773Z,83.51
2023-02-16T10:20:18.467Z,80.60
2023-02-16T10:25:37.215Z,80.90
2023-02-16T10:30:42.937Z,79.25
2023-02-16T10:35:48.060Z,78.39
2023-02-16T10:40:49.404Z,78.45
2023-02-16T10:45:58.997Z,77.65
2023-02-16T10:51:10.854Z,76.63
2023-02-16T10:56:31.799Z,76.29
2023-02-16T11:01:38.043Z,76.51
2023-02-16T11:06:39.508Z,76.67
2023-02-16T11:11:42.810Z,76.43
2023-02-16T11:16:44.736Z,75.41
2023-02-16T11:21:52.165Z,72.89
2023-02-16T11:27:21.849Z,73.32
2023-02-16T11:32:24.135Z,73.79
2023-02-16T11:37:29.546Z,74.34
2023-02-16T11:42:40.224Z,73.91
2023-02-16T11:47:43.017Z,74.08
2023-02-16T11:52:46.965Z,76.76
2023-02-16T11:57:49.002Z,74.95
2023-02-16T12:03:23.060Z,75.36
2023-02-16T12:08:36.898Z,75.45
2023-02-16T12:13:59.378Z,73.91
2023-02-16T12:19:03.786Z,73.70
2023-02-16T12:24:14.295Z,73.02
2023-02-16T12:29:34.643Z,72.83
2023-02-16T12:35:09.399Z,73.69
2023-02-16T12:40:31.991Z,73.35
2023-02-16T12:45:38.677Z,71.84
2023-02-16T12:50:42.034Z,72.52
2023-02-16T12:55:51.027Z,71.42
2023-02-16T13:00:58.507Z,72.66
2023-02-16T13:06:25.305Z,71.44
2023-02-16T13:11:56.842Z,70.38
2023-02-16T13:17:02.918Z,70.49
2023-02-16T13:22:13.651Z,69.42
2023-02-16T13:27:24.716Z,70.48
2023-02-16T13:32:32.227Z,67.70
2023-02-16T13:37:45.884Z,63.29
2023-02-16T13:42:47.305Z,64.50
2023-02-16T13:47:51.984Z,65.07
2023-02-16T13:52:56.686Z,65.82
2023-02-16T13:58:29.872Z,66.83
2023-02-16T14:03:38.060Z,67.53
2023-02-16T14:08:39.723Z,68.52
2023-02-16T14:13:41.261Z,67.56
2023-02-16T14:18:55.288Z,67.05
2023-02-16T14:23:59.052Z,67.33
2023-02-16T14:29:17.501Z,68.45
2023-02-16T14:34:31.313Z,68.05
2023-02-16T14:39:34.967Z,69.12
2023-02-16T14:44:53.605Z,68.35
2023-02-16T14:50:15.837Z,67.48
2023-02-16T14:55:43.390Z,68.71
2023-02-16T15:01:08.544Z,68.64
2023-02-16T15:06:18.860Z,69.47
2023-02-16T15:11:27.791Z,70.60
2023-02-16T15:16:31.768Z,72.27
2023-02-16T15:21:33.349Z,73.44
2023-02-16T15:26:35.869Z,74.30
2023-02-16T15:31:38.261Z,75.63
2023-02-16T15:36:42.544Z,76.17
2023-02-16T15:41:48.286Z,76.34
2023-02-16T15:46:49.737Z,76.57
2023-02-16T15:51:51.777Z,77.02
2023-02-16T15:56:59.705Z,77.01
2023-02-16T16:02:10.581Z,77.41
2023-02-16T16:07:16.121Z,77.11
2023-02-16T16:12:19.426Z,76.29
2023-02-16T16:17:27.906Z,76.75
2023-02-16T16:22:59.705Z,77.02
2023-02-16T16:28:06.350Z,77.31
2023-02-16T16:33:13.882Z,77.83
2023-02-16T16:38:25.230Z,77.92
2023-02-16T16:43:34.876Z,77.66
2023-02-16T16:48:37.148Z,78.33
2023-02-16T16:54:04.142Z,77.87
2023-02-16T16:59:06.574Z,78.50
2023-02-16T17:04:08.151Z,78.18
2023-02-16T17:09:09.811Z,78.31
2023-02-16T17:14:17.238Z,77.61
2023-02-16T17:19:21.496Z,78.18
2023-02-16T17:24:23.154Z,78.65
2023-02-16T17:29:24.711Z,78.21
2023-02-16T17:34:29.249Z,78.04
2023-02-16T17:39:30.990Z,77.53
2023-02-16T17:44:32.395Z,77.29
2023-02-16T17:49:33.860Z,77.75
2023-02-16T17:54:35.430Z,77.94
2023-02-16T17:59:36.980Z,77.58
2023-02-16T18:04:41.050Z,76.84
2023-02-16T18:09:42.705Z,75.37
2023-02-16T18:14:44.157Z,75.38
2023-02-16T18:19:45.611Z,75.51
2023-02-16T18:24:47.053Z,75.46
2023-02-16T18:29:48.613Z,74.99
2023-02-16T18:34:50.156Z,75.36
2023-02-16T18:39:51.606Z,74.37
2023-02-16T18:44:53.073Z,74.83
2023-02-16T18:49:56.094Z,74.74
2023-02-16T18:54:57.533Z,74.29
2023-02-16T18:59:59.342Z,75.32
2023-02-16T19:05:01.182Z,74.68
2023-02-16T19:10:04.840Z,74.31
2023-02-16T19:15:09.502Z,73.54
2023-02-16T19:20:14.416Z,73.83
2023-02-16T19:25:16.185Z,74.52
2023-02-16T19:30:20.563Z,75.46
2023-02-16T19:35:22.641Z,75.87
2023-02-16T19:40:24.073Z,76.37
2023-02-16T19:45:25.554Z,75.96
2023-02-16T19:50:27.010Z,76.11
2023-02-16T19:55:28.444Z,76.49
2023-02-16T20:00:30.018Z,76.80
2023-02-16T20:05:32.271Z,76.28
2023-02-16T20:10:34.318Z,76.55
2023-02-16T20:15:36.320Z,76.74
2023-02-16T20:20:37.731Z,76.83
2023-02-16T20:25:39.984Z,76.11
2023-02-16T20:30:42.282Z,76.62
2023-02-16T20:35:43.852Z,76.90
2023-02-16T20:40:45.478Z,76.79
2023-02-16T20:45:47.592Z,77.40
2023-02-16T20:51:08.587Z,76.79
2023-02-16T20:56:15.785Z,77.40
2023-02-16T21:01:27.946Z,78.04
2023-02-16T21:06:29.639Z,78.63
2023-02-16T21:11:31.748Z,78.62
2023-02-16T21:16:33.547Z,78.54
2023-02-16T21:21:35.062Z,77.95
2023-02-16T21:26:36.562Z,77.17
2023-02-16T21:31:38.307Z,78.23
2023-02-16T21:36:39.912Z,78.38
2023-02-16T21:41:41.424Z,78.89
2023-02-16T21:46:45.192Z,78.69
2023-02-16T21:51:47.989Z,78.99
2023-02-16T21:56:50.216Z,79.08
2023-02-16T22:01:51.860Z,77.99
2023-02-16T22:06:54.600Z,78.18
2023-02-16T22:11:56.201Z,77.38
2023-02-16T22:16:57.607Z,77.42
2023-02-16T22:21:59.112Z,77.47
2023-02-16T22:27:00.566Z,77.93
2023-02-16T22:32:02.056Z,77.53
2023-02-16T22:37:03.522Z,77.72
2023-02-16T22:42:04.965Z,77.73
2023-02-16T22:47:06.406Z,77.62
2023-02-16T22:52:08.523Z,78.42
2023-02-16T22:57:10.133Z,77.42
2023-02-16T23:02:11.606Z,77.65
2023-02-16T23:07:13.120Z,78.37
2023-02-16T23:12:16.264Z,78.03
2023-02-16T23:17:17.734Z,78.65
2023-02-16T23:22:19.133Z,78.61
2023-02-16T23:27:20.528Z,78.51
2023-02-16T23:32:22.369Z,78.04
2023-02-16T23:37:23.777Z,78.18
2023-02-16T23:42:25.491Z,78.91
2023-02-16T23:47:27.010Z,78.77
2023-02-16T23:52:28.410Z,78.42
2023-02-16T23:57:29.861Z,77.94
